createdAt,value
2023-04-09T00:00:30.361Z,17.80
2023-04-09T00:03:32.900Z,16.27
2023-04-09T00:06:34.694Z,15.67
2023-04-09T00:09:36.446Z,17.07
2023-04-09T00:12:38.090Z,16.40
2023-04-09T00:15:40.055Z,16.73
2023-04-09T00:18:41.862Z,16.17
2023-04-09T00:21:43.572Z,15.33
2023-04-09T00:24:45.259Z,15.83
2023-04-09T00:27:47.149Z,15.00
2023-04-09T00:30:48.886Z,16.00
2023-04-09T00:33:50.621Z,13.70
2023-04-09T00:36:52.300Z,14.17
2023-04-09T00:39:54.032Z,13.57
2023-04-09T00:42:56.958Z,14.13
2023-04-09T00:46:00.047Z,12.83
2023-04-09T00:49:01.857Z,12.97
2023-04-09T00:52:03.865Z,12.23
2023-04-09T00:55:06.468Z,13.60
2023-04-09T00:58:08.616Z,13.47
2023-04-09T01:01:10.337Z,13.23
2023-04-09T01:04:12.094Z,13.90
2023-04-09T01:07:23.474Z,14.90
2023-04-09T01:10:59.216Z,13.33
2023-04-09T01:14:18.961Z,14.07
2023-04-09T01:21:04.587Z,13.17
2023-04-09T01:24:40.574Z,13.13
2023-04-09T01:28:14.575Z,13.87
2023-04-09T01:31:19.950Z,13.33
2023-04-09T01:34:22.174Z,12.33
2023-04-09T01:37:26.110Z,14.03
2023-04-09T01:40:27.891Z,13.37
2023-04-09T01:43:31.758Z,14.23
2023-04-09T01:46:35.089Z,13.30
2023-04-09T01:49:38.264Z,13.50
2023-04-09T01:52:40.130Z,13.57
2023-04-09T01:55:41.862Z,13.73
2023-04-09T01:58:43.541Z,14.47
2023-04-09T02:01:59.807Z,13.30
2023-04-09T02:05:07.538Z,12.40
2023-04-09T02:08:12.544Z,11.57
2023-04-09T02:11:15.981Z,12.23
2023-04-09T02:14:20.520Z,11.90
2023-04-09T02:17:23.407Z,12.27
2023-04-09T02:20:25.168Z,12.60
2023-04-09T02:23:27.555Z,13.27
2023-04-09T02:26:29.420Z,13.10
2023-04-09T02:29:31.594Z,11.40
2023-04-09T02:32:33.631Z,11.30
2023-04-09T02:35:35.654Z,10.73
2023-04-09T02:38:37.488Z,12.60
2023-04-09T02:41:39.253Z,11.07
2023-04-09T02:44:41.013Z,11.67
2023-04-09T02:47:42.817Z,13.17
2023-04-09T02:50:44.805Z,12.07
2023-04-09T02:53:46.852Z,12.70
2023-04-09T02:56:48.698Z,11.27
2023-04-09T02:59:50.519Z,11.20
2023-04-09T03:02:52.860Z,11.53
2023-04-09T03:05:54.903Z,10.97
2023-04-09T03:08:56.777Z,10.23
2023-04-09T03:11:58.711Z,11.23
2023-04-09T03:15:00.659Z,10.90
2023-04-09T03:18:02.512Z,12.87
2023-04-09T03:21:08.435Z,11.03
2023-04-09T03:24:13.215Z,11.83
2023-04-09T03:27:15.725Z,9.87
2023-04-09T03:30:17.662Z,11.57
2023-04-09T03:33:20.551Z,10.77
2023-04-09T03:36:29.088Z,10.67
2023-04-09T03:39:37.408Z,12.53
2023-04-09T03:42:39.561Z,11.33
2023-04-09T03:45:43.084Z,9.67
2023-04-09T03:48:55.442Z,10.67
2023-04-09T03:52:02.257Z,10.33
2023-04-09T03:55:11.633Z,9.87
2023-04-09T03:58:13.628Z,11.37
2023-04-09T04:01:15.778Z,10.37
2023-04-09T04:04:28.501Z,12.00
2023-04-09T04:07:32.957Z,10.57
2023-04-09T04:10:41.179Z,11.70
2023-04-09T04:13:44.024Z,9.23
2023-04-09T04:16:46.503Z,11.33
2023-04-09T04:19:52.511Z,11.70
2023-04-09T04:22:55.348Z,13.17
2023-04-09T04:25:58.855Z,11.90
2023-04-09T04:29:08.784Z,10.73
2023-04-09T04:32:22.318Z,10.23
2023-04-09T04:35:25.520Z,9.53
2023-04-09T04:38:31.430Z,12.43
2023-04-09T04:41:36.444Z,12.33
2023-04-09T04:44:52.047Z,12.03
2023-04-09T04:48:12.763Z,11.63
2023-04-09T04:51:14.709Z,11.80
2023-04-09T04:54:22.589Z,11.50
2023-04-09T04:57:28.499Z,12.73
2023-04-09T05:00:30.678Z,11.83
2023-04-09T05:04:05.238Z,11.70
2023-04-09T05:07:09.293Z,12.53
2023-04-09T05:10:17.220Z,12.17
2023-04-09T05:13:21.002Z,13.40
2023-04-09T05:16:23.114Z,13.90
2023-04-09T05:19:33.218Z,13.90
2023-04-09T05:22:38.062Z,14.47
2023-04-09T05:25:40.932Z,12.97
2023-04-09T05:28:49.455Z,13.33
2023-04-09T05:31:54.388Z,13.70
2023-04-09T05:35:02.529Z,14.50
2023-04-09T05:38:06.482Z,14.17
2023-04-09T05:41:08.781Z,14.70
2023-04-09T05:44:16.385Z,13.57
2023-04-09T05:47:19.001Z,15.87
2023-04-09T05:50:51.034Z,15.97
2023-04-09T05:53:55.724Z,15.30
2023-04-09T05:57:00.643Z,13.93
2023-04-09T06:00:03.171Z,15.13
2023-04-09T06:03:18.585Z,16.17
2023-04-09T06:06:20.697Z,14.80
2023-04-09T06:09:22.690Z,14.67
2023-04-09T06:12:24.946Z,16.03
2023-04-09T06:15:27.379Z,15.73
2023-04-09T06:18:29.746Z,15.07
2023-04-09T06:21:33.449Z,15.77
2023-04-09T06:24:35.249Z,15.10
2023-04-09T06:27:37.139Z,16.20
2023-04-09T06:30:39.103Z,18.33
2023-04-09T06:33:44.065Z,17.93
2023-04-09T06:36:46.028Z,17.77
2023-04-09T06:40:00.504Z,17.33
2023-04-09T06:43:02.641Z,17.40
2023-04-09T06:46:13.968Z,15.77
2023-04-09T06:49:16.093Z,17.40
2023-04-09T06:52:18.076Z,17.87
2023-04-09T06:55:20.372Z,18.40
2023-04-09T06:58:22.449Z,18.00
2023-04-09T07:01:25.624Z,18.37
2023-04-09T07:04:27.963Z,17.60
2023-04-09T07:07:30.746Z,16.43
2023-04-09T07:10:32.813Z,18.10
2023-04-09T07:13:35.002Z,17.87
2023-04-09T07:16:36.929Z,16.63
2023-04-09T07:19:39.006Z,17.57
2023-04-09T07:22:41.791Z,19.53
2023-04-09T07:25:44.026Z,17.53
2023-04-09T07:28:46.041Z,18.87
2023-04-09T07:31:48.274Z,19.00
2023-04-09T07:34:57.370Z,18.13
2023-04-09T07:37:59.565Z,17.73
2023-04-09T07:41:01.737Z,17.23
2023-04-09T07:44:04.117Z,17.37
2023-04-09T07:47:08.767Z,15.73
2023-04-09T07:50:11.761Z,16.67
2023-04-09T07:53:13.848Z,15.70
2023-04-09T07:56:16.889Z,14.90
2023-04-09T07:59:21.181Z,15.27
2023-04-09T08:02:23.990Z,14.57
2023-04-09T08:05:26.569Z,14.73
2023-04-09T08:08:29.638Z,15.40
2023-04-09T08:11:34.626Z,13.23
2023-04-09T08:14:37.095Z,12.47
2023-04-09T08:17:39.180Z,12.27
2023-04-09T08:20:45.280Z,12.03
2023-04-09T08:23:47.715Z,11.87
2023-04-09T08:26:49.843Z,12.40
2023-04-09T08:29:52.208Z,12.87
2023-04-09T08:32:54.292Z,11.73
2023-04-09T08:35:56.339Z,12.57
2023-04-09T08:39:00.736Z,11.07
2023-04-09T08:42:06.486Z,11.63
2023-04-09T08:45:09.302Z,12.07
2023-04-09T08:48:13.733Z,11.27
2023-04-09T08:51:16.804Z,9.77
2023-04-09T08:54:22.175Z,9.47
2023-04-09T08:57:24.402Z,10.73
2023-04-09T09:00:28.829Z,10.57
2023-04-09T09:03:31.952Z,8.40
2023-04-09T09:06:36.194Z,10.50
2023-04-09T09:10:13.521Z,9.57
2023-04-09T09:13:28.628Z,10.70
2023-04-09T09:16:34.754Z,9.30
2023-04-09T09:19:37.237Z,6.97
2023-04-09T09:22:54.857Z,7.80
2023-04-09T09:25:57.394Z,7.57
2023-04-09T09:29:04.185Z,7.33
2023-04-09T09:32:13.728Z,7.80
2023-04-09T09:35:15.772Z,7.67
2023-04-09T09:38:20.712Z,6.00
2023-04-09T09:41:24.512Z,6.67
2023-04-09T09:44:34.027Z,7.00
2023-04-09T09:47:38.109Z,6.67
2023-04-09T09:50:42.034Z,6.13
2023-04-09T09:53:49.553Z,5.70
2023-04-09T09:56:53.113Z,6.57
2023-04-09T10:00:01.486Z,6.93
2023-04-09T10:03:32.330Z,7.80
2023-04-09T10:06:34.643Z,6.70
2023-04-09T10:09:39.752Z,6.63
2023-04-09T10:12:42.551Z,6.80
2023-04-09T10:15:46.138Z,7.30
2023-04-09T10:18:48.574Z,4.87
2023-04-09T10:21:59.293Z,5.57
2023-04-09T10:25:02.035Z,5.87
2023-04-09T10:28:16.691Z,5.77
2023-04-09T10:31:21.324Z,4.97
2023-04-09T10:34:27.128Z,5.03
2023-04-09T10:37:33.796Z,5.13
2023-04-09T10:40:49.961Z,5.20
2023-04-09T10:43:52.182Z,5.37
2023-04-09T10:46:56.401Z,5.00
2023-04-09T10:49:59.118Z,4.67
2023-04-09T10:53:04.772Z,5.10
2023-04-09T10:56:23.635Z,4.73
2023-04-09T10:59:26.724Z,4.80
2023-04-09T11:02:48.950Z,5.40
2023-04-09T11:06:13.745Z,5.47
2023-04-09T11:09:35.687Z,4.93
2023-04-09T11:12:49.984Z,6.17
2023-04-09T11:15:52.331Z,5.30
2023-04-09T11:19:07.840Z,5.40
2023-04-09T11:22:11.417Z,6.17
2023-04-09T11:25:25.451Z,5.70
2023-04-09T11:31:45.629Z,5.33
2023-04-09T11:34:47.875Z,4.90
2023-04-09T12:12:52.120Z,5.77
2023-04-09T12:19:08.897Z,4.60
2023-04-09T12:22:11.087Z,5.30
2023-04-09T12:25:13.180Z,6.07
2023-04-09T12:28:18.648Z,6.47
2023-04-09T12:31:21.076Z,5.37
2023-04-09T12:34:23.708Z,5.83
2023-04-09T12:37:26.227Z,5.80
2023-04-09T12:40:28.443Z,6.70
2023-04-09T12:43:33.380Z,6.30
2023-04-09T12:46:36.050Z,5.40
2023-04-09T12:49:42.324Z,6.10
2023-04-09T12:52:45.591Z,6.83
2023-04-09T12:55:47.621Z,7.23
2023-04-09T12:58:49.618Z,5.57
2023-04-09T13:01:59.236Z,4.70
2023-04-09T13:05:04.082Z,5.13
2023-04-09T13:08:06.998Z,5.45
2023-04-09T13:11:11.903Z,5.22
2023-04-09T13:14:14.469Z,5.03
2023-04-09T13:17:16.697Z,5.40
2023-04-09T13:20:19.363Z,4.80
2023-04-09T13:23:21.309Z,5.60
2023-04-09T13:26:23.319Z,5.43
2023-04-09T13:29:33.343Z,5.63
2023-04-09T13:32:35.408Z,5.63
2023-04-09T13:35:37.481Z,6.00
2023-04-09T13:38:39.601Z,5.43
2023-04-09T13:41:41.690Z,5.68
2023-04-09T13:44:53.666Z,5.55
2023-04-09T13:47:59.959Z,6.57
2023-04-09T13:51:02.269Z,5.25
2023-04-09T13:54:06.068Z,5.13
2023-04-09T13:57:08.596Z,5.72
2023-04-09T14:00:10.981Z,5.60
2023-04-09T14:03:14.348Z,5.32
2023-04-09T14:06:16.621Z,5.30
2023-04-09T14:09:18.475Z,6.05
2023-04-09T14:12:20.614Z,6.18
2023-04-09T14:15:22.783Z,5.47
2023-04-09T14:18:24.630Z,5.43
2023-04-09T14:21:27.127Z,5.10
2023-04-09T14:24:28.975Z,5.90
2023-04-09T14:27:31.090Z,5.95
2023-04-09T14:30:33.098Z,5.57
2023-04-09T14:33:37.763Z,5.20
2023-04-09T14:36:39.843Z,5.75
2023-04-09T14:39:43.174Z,4.85
2023-04-09T14:42:46.243Z,5.93
2023-04-09T14:45:48.120Z,7.07
2023-04-09T14:48:50.064Z,6.30
2023-04-09T14:51:51.999Z,5.95
2023-04-09T14:54:54.462Z,5.28
2023-04-09T14:57:56.660Z,5.20
2023-04-09T15:00:58.949Z,4.50
2023-04-09T15:04:00.936Z,5.82
2023-04-09T15:07:02.879Z,6.03
2023-04-09T15:10:05.420Z,4.80
2023-04-09T15:13:07.599Z,5.47
2023-04-09T15:16:09.788Z,6.97
2023-04-09T15:19:11.685Z,4.60
2023-04-09T15:22:13.974Z,4.63
2023-04-09T15:25:16.343Z,4.95
2023-04-09T15:28:18.226Z,5.00
2023-04-09T15:31:20.521Z,4.90
2023-04-09T15:34:23.569Z,4.75
2023-04-09T15:37:25.400Z,4.95
2023-04-09T15:40:29.037Z,5.10
2023-04-09T15:43:31.614Z,4.97
2023-04-09T15:46:34.180Z,5.75
2023-04-09T15:49:36.882Z,5.88
2023-04-09T15:52:39.093Z,4.90
2023-04-09T15:55:41.460Z,5.80
2023-04-09T15:58:43.713Z,6.07
2023-04-09T16:01:45.972Z,5.20
2023-04-09T16:04:47.881Z,5.47
2023-04-09T16:07:52.803Z,5.68
2023-04-09T16:10:54.620Z,5.47
2023-04-09T16:13:57.198Z,5.68
2023-04-09T16:16:59.325Z,5.55
2023-04-09T16:20:01.268Z,5.93
2023-04-09T16:23:03.047Z,5.32
2023-04-09T16:26:05.373Z,5.43
2023-04-09T16:29:07.597Z,4.80
2023-04-09T16:32:09.483Z,5.00
2023-04-09T16:35:13.503Z,5.30
2023-04-09T16:38:15.651Z,5.17
2023-04-09T16:41:17.569Z,4.83
2023-04-09T16:44:19.424Z,4.63
2023-04-09T16:47:21.234Z,5.03
2023-04-09T16:50:23.812Z,5.63
2023-04-09T16:53:26.176Z,4.37
2023-04-09T16:56:28.155Z,4.83
2023-04-09T16:59:29.975Z,5.30
2023-04-09T17:02:32.710Z,5.23
2023-04-09T17:05:35.822Z,4.73
2023-04-09T17:08:37.560Z,5.50
2023-04-09T17:11:39.355Z,5.80
2023-04-09T17:14:44.484Z,4.87
2023-04-09T17:17:47.814Z,5.27
2023-04-09T17:20:50.522Z,5.27
2023-04-09T17:23:52.707Z,4.70
2023-04-09T17:26:54.642Z,4.60
2023-04-09T17:29:56.485Z,5.37
2023-04-09T17:32:58.243Z,5.13
2023-04-09T17:36:01.464Z,5.40
2023-04-09T17:39:03.427Z,5.67
2023-04-09T17:42:08.507Z,5.20
2023-04-09T17:45:10.971Z,5.30
2023-04-09T17:48:12.751Z,6.00
2023-04-09T17:51:18.376Z,5.53
2023-04-09T17:54:21.153Z,7.03
2023-04-09T17:57:22.990Z,7.10
2023-04-09T18:00:25.478Z,6.73
2023-04-09T18:03:27.816Z,7.63
2023-04-09T18:06:29.986Z,7.83
2023-04-09T18:09:32.185Z,7.97
2023-04-09T18:12:34.163Z,8.90
2023-04-09T18:15:36.660Z,10.03
2023-04-09T18:18:38.849Z,10.33
2023-04-09T18:21:40.782Z,10.07
2023-04-09T18:24:42.616Z,9.50
2023-04-09T18:27:44.747Z,11.60
2023-04-09T18:30:46.631Z,11.93
2023-04-09T18:33:48.604Z,8.93
2023-04-09T18:36:50.969Z,9.77
2023-04-09T18:39:52.850Z,9.17
2023-04-09T18:42:54.873Z,13.50
2023-04-09T18:45:57.376Z,12.00
2023-04-09T18:48:59.365Z,12.70
2023-04-09T18:52:02.562Z,13.30
2023-04-09T18:55:05.079Z,14.57
2023-04-09T18:58:12.678Z,16.67
2023-04-09T19:01:15.317Z,17.93
2023-04-09T19:04:17.295Z,19.57
2023-04-09T19:07:22.203Z,18.47
2023-04-09T19:10:24.194Z,19.17
2023-04-09T19:13:26.441Z,21.23
2023-04-09T19:16:29.370Z,18.40
2023-04-09T19:19:40.511Z,18.87
2023-04-09T19:22:48.184Z,18.43
2023-04-09T19:25:55.655Z,15.87
2023-04-09T19:28:57.429Z,15.97
2023-04-09T19:31:59.481Z,16.80
2023-04-09T19:35:01.620Z,18.10
2023-04-09T19:38:07.643Z,18.47
2023-04-09T19:41:09.649Z,17.27
2023-04-09T19:44:11.585Z,18.37
2023-04-09T19:47:13.771Z,15.63
2023-04-09T19:50:15.724Z,15.97
2023-04-09T19:53:18.388Z,14.43
2023-04-09T19:56:21.561Z,15.23
2023-04-09T19:59:30.004Z,14.33
2023-04-09T20:02:32.011Z,13.30
2023-04-09T20:05:33.979Z,14.30
2023-04-09T20:08:36.737Z,15.13
2023-04-09T20:11:39.220Z,15.67
2023-04-09T20:14:41.227Z,15.73
2023-04-09T20:17:43.157Z,15.00
2023-04-09T20:20:45.298Z,14.70
2023-04-09T20:23:47.569Z,18.53
2023-04-09T20:26:49.417Z,20.27
2023-04-09T20:29:54.147Z,20.20
2023-04-09T20:32:56.095Z,19.27
2023-04-09T20:35:59.492Z,16.97
2023-04-09T20:39:01.380Z,18.00
2023-04-09T20:42:03.471Z,17.97
2023-04-09T20:45:06.502Z,15.67
2023-04-09T20:48:08.742Z,13.93
2023-04-09T20:51:11.522Z,15.43
2023-04-09T20:54:20.198Z,15.70
2023-04-09T20:57:28.245Z,17.60
2023-04-09T21:00:32.949Z,16.47
2023-04-09T21:03:39.179Z,16.33
2023-04-09T21:06:41.469Z,16.20
2023-04-09T21:09:43.771Z,16.63
2023-04-09T21:12:53.259Z,16.33
2023-04-09T21:15:57.187Z,16.10
2023-04-09T21:19:03.188Z,17.37
2023-04-09T21:22:05.336Z,18.43
2023-04-09T21:25:07.581Z,17.87
2023-04-09T21:28:09.747Z,18.23
2023-04-09T21:31:11.763Z,16.90
2023-04-09T21:34:14.162Z,17.63
2023-04-09T21:37:16.270Z,16.13
2023-04-09T21:40:18.341Z,18.63
2023-04-09T21:43:20.216Z,16.97
2023-04-09T21:46:23.042Z,16.77
2023-04-09T21:49:25.002Z,16.03
2023-04-09T21:52:27.041Z,16.80
2023-04-09T21:55:28.984Z,16.30
2023-04-09T21:58:31.762Z,17.00
2023-04-09T22:01:34.980Z,17.47
2023-04-09T22:04:37.392Z,17.43
2023-04-09T22:07:39.920Z,16.67
2023-04-09T22:10:42.242Z,14.90
2023-04-09T22:13:44.046Z,14.97
2023-04-09T22:16:46.514Z,16.87
2023-04-09T22:19:50.882Z,16.13
2023-04-09T22:22:54.424Z,16.33
2023-04-09T22:26:03.418Z,17.07
2023-04-09T22:29:06.958Z,17.03
2023-04-09T22:32:09.368Z,17.07
2023-04-09T22:35:14.891Z,16.40
2023-04-09T22:38:16.634Z,17.93
2023-04-09T22:41:18.487Z,17.03
2023-04-09T22:44:20.433Z,17.17
2023-04-09T22:47:22.164Z,17.67
2023-04-09T22:50:28.065Z,18.07
2023-04-09T22:53:29.791Z,16.07
2023-04-09T22:56:32.469Z,16.37
2023-04-09T23:02:41.514Z,16.80
2023-04-09T23:05:43.815Z,16.60
2023-04-09T23:08:45.757Z,16.70
2023-04-09T23:11:47.515Z,16.87
2023-04-09T23:14:49.501Z,19.87
2023-04-09T23:17:52.900Z,15.43
2023-04-09T23:20:54.609Z,16.93
2023-04-09T23:23:56.526Z,17.50
2023-04-09T23:26:58.628Z,16.60
2023-04-09T23:30:00.415Z,16.87
2023-04-09T23:33:02.325Z,17.00
2023-04-09T23:36:04.351Z,16.43
2023-04-09T23:39:06.085Z,16.50
2023-04-09T23:42:07.897Z,17.70
2023-04-09T23:45:10.172Z,17.27
2023-04-09T23:48:12.764Z,19.37
2023-04-09T23:51:18.590Z,17.17
2023-04-09T23:54:20.433Z,17.03
2023-04-09T23:57:22.492Z,19.17
